sensor_id;sensor_type;location;lat;lon;timestamp;pressure;altitude;pressure_sealevel;temperature;humidity
63111;BME280;49201;53.426;10.300;2022-07-17T00:01:27;102627.03;;;13.57;80.24
63111;BME280;49201;53.426;10.300;2022-07-17T00:03:52;102631.28;;;13.55;80.60
63111;BME280;49201;53.426;10.300;2022-07-17T00:06:18;102624.34;;;13.54;80.74
63111;BME280;49201;53.426;10.300;2022-07-17T00:08:43;102627.88;;;13.56;80.91
63111;BME280;49201;53.426;10.300;2022-07-17T00:11:09;102620.91;;;13.54;80.75
63111;BME280;49201;53.426;10.300;2022-07-17T00:13:35;102622.59;;;13.53;81.65
63111;BME280;49201;53.426;10.300;2022-07-17T00:16:00;102623.28;;;13.48;81.45
63111;BME280;49201;53.426;10.300;2022-07-17T00:18:26;102620.41;;;13.40;82.14
63111;BME280;49201;53.426;10.300;2022-07-17T00:20:51;102616.72;;;13.34;81.60
63111;BME280;49201;53.426;10.300;2022-07-17T00:23:17;102614.75;;;13.27;81.58
63111;BME280;49201;53.426;10.300;2022-07-17T00:25:43;102617.06;;;13.19;82.15
63111;BME280;49201;53.426;10.300;2022-07-17T00:28:09;102620.19;;;13.12;81.83
63111;BME280;49201;53.426;10.300;2022-07-17T00:30:34;102620.88;;;13.07;82.39
63111;BME280;49201;53.426;10.300;2022-07-17T00:33:00;102620.75;;;13.04;82.30
63111;BME280;49201;53.426;10.300;2022-07-17T00:35:26;102624.00;;;13.00;82.94
63111;BME280;49201;53.426;10.300;2022-07-17T00:37:51;102625.56;;;12.96;82.86
63111;BME280;49201;53.426;10.300;2022-07-17T00:40:22;102624.44;;;12.89;83.34
63111;BME280;49201;53.426;10.300;2022-07-17T00:42:48;102630.41;;;12.88;83.60
63111;BME280;49201;53.426;10.300;2022-07-17T00:45:14;102628.69;;;12.89;84.01
63111;BME280;49201;53.426;10.300;2022-07-17T00:50:17;102632.84;;;12.85;84.74
63111;BME280;49201;53.426;10.300;2022-07-17T00:52:43;102630.28;;;12.85;84.64
63111;BME280;49201;53.426;10.300;2022-07-17T00:55:12;102626.78;;;12.83;85.00
63111;BME280;49201;53.426;10.300;2022-07-17T00:57:39;102630.13;;;12.81;85.15
63111;BME280;49201;53.426;10.300;2022-07-17T01:00:06;102626.66;;;12.80;85.38
63111;BME280;49201;53.426;10.300;2022-07-17T01:02:36;102624.03;;;12.79;85.34
63111;BME280;49201;53.426;10.300;2022-07-17T01:05:03;102624.66;;;12.73;85.50
63111;BME280;49201;53.426;10.300;2022-07-17T01:07:29;102620.09;;;12.66;85.17
63111;BME280;49201;53.426;10.300;2022-07-17T01:09:54;102619.06;;;12.61;85.05
63111;BME280;49201;53.426;10.300;2022-07-17T01:12:20;102625.81;;;12.59;84.54
63111;BME280;49201;53.426;10.300;2022-07-17T01:14:46;102622.16;;;12.53;84.91
63111;BME280;49201;53.426;10.300;2022-07-17T01:17:12;102623.59;;;12.46;85.03
63111;BME280;49201;53.426;10.300;2022-07-17T01:19:38;102625.88;;;12.40;85.69
63111;BME280;49201;53.426;10.300;2022-07-17T01:22:03;102629.97;;;12.35;86.04
63111;BME280;49201;53.426;10.300;2022-07-17T01:24:29;102623.91;;;12.33;85.88
63111;BME280;49201;53.426;10.300;2022-07-17T01:26:54;102632.28;;;12.29;86.19
63111;BME280;49201;53.426;10.300;2022-07-17T01:29:20;102621.03;;;12.26;85.89
63111;BME280;49201;53.426;10.300;2022-07-17T01:31:45;102624.22;;;12.20;86.71
63111;BME280;49201;53.426;10.300;2022-07-17T01:34:11;102631.75;;;12.16;86.75
63111;BME280;49201;53.426;10.300;2022-07-17T01:36:41;102633.28;;;12.12;86.84
63111;BME280;49201;53.426;10.300;2022-07-17T01:39:07;102626.25;;;12.08;86.67
63111;BME280;49201;53.426;10.300;2022-07-17T01:41:32;102634.72;;;12.06;87.27
63111;BME280;49201;53.426;10.300;2022-07-17T01:43:58;102637.09;;;12.01;87.23
63111;BME280;49201;53.426;10.300;2022-07-17T01:46:24;102630.97;;;11.98;87.65
63111;BME280;49201;53.426;10.300;2022-07-17T01:48:50;102646.16;;;11.93;88.08
63111;BME280;49201;53.426;10.300;2022-07-17T01:51:16;102639.28;;;11.92;88.16
63111;BME280;49201;53.426;10.300;2022-07-17T01:53:41;102640.03;;;11.90;88.36
63111;BME280;49201;53.426;10.300;2022-07-17T01:56:07;102643.41;;;11.89;87.86
63111;BME280;49201;53.426;10.300;2022-07-17T01:58:33;102641.63;;;11.88;88.43
63111;BME280;49201;53.426;10.300;2022-07-17T02:00:59;102644.16;;;11.86;87.72
63111;BME280;49201;53.426;10.300;2022-07-17T02:03:24;102637.31;;;11.87;87.64
63111;BME280;49201;53.426;10.300;2022-07-17T02:05:50;102640.56;;;11.83;87.72
63111;BME280;49201;53.426;10.300;2022-07-17T02:08:15;102640.56;;;11.83;88.00
63111;BME280;49201;53.426;10.300;2022-07-17T02:10:41;102643.09;;;11.81;87.74
63111;BME280;49201;53.426;10.300;2022-07-17T02:13:06;102645.50;;;11.78;87.72
63111;BME280;49201;53.426;10.300;2022-07-17T02:15:32;102646.31;;;11.77;88.17
63111;BME280;49201;53.426;10.300;2022-07-17T02:17:57;102644.34;;;11.72;88.53
63111;BME280;49201;53.426;10.300;2022-07-17T02:20:23;102646.19;;;11.74;88.88
63111;BME280;49201;53.426;10.300;2022-07-17T02:22:48;102642.72;;;11.74;88.79
63111;BME280;49201;53.426;10.300;2022-07-17T02:25:14;102644.50;;;11.75;88.72
63111;BME280;49201;53.426;10.300;2022-07-17T02:27:40;102640.97;;;11.73;89.13
63111;BME280;49201;53.426;10.300;2022-07-17T02:30:09;102642.72;;;11.74;88.69
63111;BME280;49201;53.426;10.300;2022-07-17T02:32:35;102644.22;;;11.69;88.70
63111;BME280;49201;53.426;10.300;2022-07-17T02:35:01;102654.38;;;11.66;88.32
63111;BME280;49201;53.426;10.300;2022-07-17T02:37:26;102659.44;;;11.64;88.33
63111;BME280;49201;53.426;10.300;2022-07-17T02:39:52;102663.88;;;11.68;88.55
63111;BME280;49201;53.426;10.300;2022-07-17T02:42:25;102662.59;;;11.78;88.52
63111;BME280;49201;53.426;10.300;2022-07-17T02:44:52;102671.44;;;11.84;89.10
63111;BME280;49201;53.426;10.300;2022-07-17T02:47:26;102676.78;;;11.89;89.02
63111;BME280;49201;53.426;10.300;2022-07-17T02:49:52;102676.81;;;11.90;88.81
63111;BME280;49201;53.426;10.300;2022-07-17T02:52:18;102676.22;;;11.96;88.33
63111;BME280;49201;53.426;10.300;2022-07-17T02:54:44;102671.00;;;11.94;88.68
63111;BME280;49201;53.426;10.300;2022-07-17T02:57:10;102679.47;;;11.92;88.66
63111;BME280;49201;53.426;10.300;2022-07-17T02:59:35;102683.72;;;11.91;88.69
63111;BME280;49201;53.426;10.300;2022-07-17T03:02:01;102680.50;;;11.95;88.92
63111;BME280;49201;53.426;10.300;2022-07-17T03:04:26;102671.91;;;11.95;88.25
63111;BME280;49201;53.426;10.300;2022-07-17T03:06:52;102668.59;;;11.97;88.63
63111;BME280;49201;53.426;10.300;2022-07-17T03:09:17;102674.66;;;11.99;88.39
63111;BME280;49201;53.426;10.300;2022-07-17T03:11:43;102676.44;;;12.00;88.27
63111;BME280;49201;53.426;10.300;2022-07-17T03:14:09;102679.03;;;12.02;88.31
63111;BME280;49201;53.426;10.300;2022-07-17T03:16:34;102692.84;;;12.04;88.01
63111;BME280;49201;53.426;10.300;2022-07-17T03:19:00;102693.91;;;12.09;87.80
63111;BME280;49201;53.426;10.300;2022-07-17T03:21:25;102694.91;;;12.12;88.01
63111;BME280;49201;53.426;10.300;2022-07-17T03:23:50;102699.38;;;12.16;88.23
63111;BME280;49201;53.426;10.300;2022-07-17T03:26:16;102698.63;;;12.19;88.77
63111;BME280;49201;53.426;10.300;2022-07-17T03:28:41;102697.06;;;12.22;88.43
63111;BME280;49201;53.426;10.300;2022-07-17T03:31:07;102697.94;;;12.23;88.09
63111;BME280;49201;53.426;10.300;2022-07-17T03:33:32;102698.94;;;12.26;87.48
63111;BME280;49201;53.426;10.300;2022-07-17T03:35:57;102700.75;;;12.29;87.52
63111;BME280;49201;53.426;10.300;2022-07-17T03:38:23;102698.25;;;12.30;87.71
63111;BME280;49201;53.426;10.300;2022-07-17T03:40:48;102683.84;;;12.34;87.69
63111;BME280;49201;53.426;10.300;2022-07-17T03:43:14;102679.75;;;12.37;87.13
63111;BME280;49201;53.426;10.300;2022-07-17T03:45:39;102674.66;;;12.39;87.60
63111;BME280;49201;53.426;10.300;2022-07-17T03:48:05;102666.97;;;12.39;87.60
63111;BME280;49201;53.426;10.300;2022-07-17T03:50:31;102663.63;;;12.41;87.76
63111;BME280;49201;53.426;10.300;2022-07-17T03:52:56;102665.38;;;12.42;87.36
63111;BME280;49201;53.426;10.300;2022-07-17T03:55:22;102658.81;;;12.49;87.70
63111;BME280;49201;53.426;10.300;2022-07-17T03:57:47;102665.88;;;12.54;86.96
63111;BME280;49201;53.426;10.300;2022-07-17T04:00:13;102666.94;;;12.59;86.84
63111;BME280;49201;53.426;10.300;2022-07-17T04:02:41;102673.25;;;12.67;86.90
63111;BME280;49201;53.426;10.300;2022-07-17T04:05:06;102675.97;;;12.70;86.39
63111;BME280;49201;53.426;10.300;2022-07-17T04:07:40;102682.72;;;12.68;86.74
63111;BME280;49201;53.426;10.300;2022-07-17T04:10:07;102677.84;;;12.74;86.87
63111;BME280;49201;53.426;10.300;2022-07-17T04:12:32;102695.94;;;12.77;86.75
63111;BME280;49201;53.426;10.300;2022-07-17T04:14:58;102694.72;;;12.68;86.82
63111;BME280;49201;53.426;10.300;2022-07-17T04:17:24;102686.88;;;12.65;86.79
63111;BME280;49201;53.426;10.300;2022-07-17T04:19:50;102689.50;;;12.66;86.73
63111;BME280;49201;53.426;10.300;2022-07-17T04:22:16;102692.22;;;12.69;86.58
63111;BME280;49201;53.426;10.300;2022-07-17T04:24:41;102692.75;;;12.62;86.85
63111;BME280;49201;53.426;10.300;2022-07-17T04:27:07;102694.72;;;12.68;87.42
63111;BME280;49201;53.426;10.300;2022-07-17T04:29:33;102682.91;;;12.73;87.40
63111;BME280;49201;53.426;10.300;2022-07-17T04:31:59;102683.28;;;12.82;87.25
63111;BME280;49201;53.426;10.300;2022-07-17T04:34:24;102687.59;;;12.83;87.67
63111;BME280;49201;53.426;10.300;2022-07-17T04:36:50;102701.09;;;12.98;86.90
63111;BME280;49201;53.426;10.300;2022-07-17T04:39:16;102698.03;;;13.07;86.31
63111;BME280;49201;53.426;10.300;2022-07-17T04:41:41;102689.03;;;13.18;85.94
63111;BME280;49201;53.426;10.300;2022-07-17T04:44:06;102686.81;;;13.27;85.56
63111;BME280;49201;53.426;10.300;2022-07-17T04:46:32;102685.56;;;13.39;85.27
63111;BME280;49201;53.426;10.300;2022-07-17T04:48:57;102688.19;;;13.41;85.22
63111;BME280;49201;53.426;10.300;2022-07-17T04:51:23;102691.13;;;13.50;85.35
63111;BME280;49201;53.426;10.300;2022-07-17T04:53:48;102692.16;;;13.55;84.24
63111;BME280;49201;53.426;10.300;2022-07-17T04:56:13;102693.06;;;13.57;83.21
63111;BME280;49201;53.426;10.300;2022-07-17T04:58:39;102694.16;;;13.62;83.26
63111;BME280;49201;53.426;10.300;2022-07-17T05:01:05;102693.66;;;13.72;83.25
63111;BME280;49201;53.426;10.300;2022-07-17T05:03:30;102693.38;;;13.88;82.76
63111;BME280;49201;53.426;10.300;2022-07-17T05:05:55;102684.09;;;13.93;82.09
63111;BME280;49201;53.426;10.300;2022-07-17T05:08:21;102683.50;;;14.00;82.48
63111;BME280;49201;53.426;10.300;2022-07-17T05:10:46;102681.84;;;14.02;81.17
63111;BME280;49201;53.426;10.300;2022-07-17T05:13:12;102675.06;;;14.04;81.04
63111;BME280;49201;53.426;10.300;2022-07-17T05:15:38;102665.28;;;14.19;80.75
63111;BME280;49201;53.426;10.300;2022-07-17T05:18:03;102668.34;;;14.32;79.77
63111;BME280;49201;53.426;10.300;2022-07-17T05:20:28;102664.34;;;14.40;79.92
63111;BME280;49201;53.426;10.300;2022-07-17T05:22:54;102668.59;;;14.40;79.68
63111;BME280;49201;53.426;10.300;2022-07-17T05:25:19;102668.28;;;14.56;79.31
63111;BME280;49201;53.426;10.300;2022-07-17T05:27:45;102663.06;;;14.54;79.47
63111;BME280;49201;53.426;10.300;2022-07-17T05:30:10;102662.06;;;14.49;79.13
63111;BME280;49201;53.426;10.300;2022-07-17T05:32:36;102673.03;;;14.44;79.19
63111;BME280;49201;53.426;10.300;2022-07-17T05:35:01;102670.75;;;14.53;79.07
63111;BME280;49201;53.426;10.300;2022-07-17T05:37:27;102673.34;;;14.53;78.42
63111;BME280;49201;53.426;10.300;2022-07-17T05:39:52;102678.78;;;14.62;78.26
63111;BME280;49201;53.426;10.300;2022-07-17T05:42:18;102679.97;;;14.71;78.03
63111;BME280;49201;53.426;10.300;2022-07-17T05:44:43;102682.63;;;14.74;77.43
63111;BME280;49201;53.426;10.300;2022-07-17T05:47:09;102701.75;;;14.79;77.18
63111;BME280;49201;53.426;10.300;2022-07-17T05:49:34;102691.69;;;14.88;76.60
63111;BME280;49201;53.426;10.300;2022-07-17T05:51:59;102694.47;;;14.94;76.30
63111;BME280;49201;53.426;10.300;2022-07-17T05:54:25;102692.97;;;15.01;76.91
63111;BME280;49201;53.426;10.300;2022-07-17T05:56:50;102704.19;;;15.03;76.39
63111;BME280;49201;53.426;10.300;2022-07-17T05:59:16;102698.41;;;15.10;76.96
63111;BME280;49201;53.426;10.300;2022-07-17T06:01:41;102692.53;;;15.15;76.53
63111;BME280;49201;53.426;10.300;2022-07-17T06:04:07;102694.56;;;15.24;75.45
63111;BME280;49201;53.426;10.300;2022-07-17T06:06:32;102691.34;;;15.32;75.87
63111;BME280;49201;53.426;10.300;2022-07-17T06:08:58;102691.78;;;15.46;75.60
63111;BME280;49201;53.426;10.300;2022-07-17T06:11:23;102690.25;;;15.52;75.41
63111;BME280;49201;53.426;10.300;2022-07-17T06:13:49;102699.47;;;15.43;75.06
63111;BME280;49201;53.426;10.300;2022-07-17T06:16:14;102694.47;;;15.49;74.42
63111;BME280;49201;53.426;10.300;2022-07-17T06:18:39;102696.31;;;15.53;74.72
63111;BME280;49201;53.426;10.300;2022-07-17T06:21:05;102693.31;;;15.69;74.00
63111;BME280;49201;53.426;10.300;2022-07-17T06:23:30;102698.19;;;15.88;73.11
63111;BME280;49201;53.426;10.300;2022-07-17T06:25:56;102708.00;;;16.01;72.00
63111;BME280;49201;53.426;10.300;2022-07-17T06:28:21;102706.56;;;16.10;72.37
63111;BME280;49201;53.426;10.300;2022-07-17T06:30:47;102700.03;;;16.24;71.52
63111;BME280;49201;53.426;10.300;2022-07-17T06:33:12;102702.25;;;16.42;71.07
63111;BME280;49201;53.426;10.300;2022-07-17T06:35:38;102699.78;;;16.46;70.98
63111;BME280;49201;53.426;10.300;2022-07-17T06:38:03;102696.09;;;16.38;70.17
63111;BME280;49201;53.426;10.300;2022-07-17T06:40:30;102711.69;;;16.40;69.96
63111;BME280;49201;53.426;10.300;2022-07-17T06:42:55;102709.81;;;16.36;70.20
63111;BME280;49201;53.426;10.300;2022-07-17T06:45:21;102717.75;;;16.42;70.80
63111;BME280;49201;53.426;10.300;2022-07-17T06:47:46;102706.81;;;16.52;70.73
63111;BME280;49201;53.426;10.300;2022-07-17T06:50:11;102709.63;;;16.61;69.85
63111;BME280;49201;53.426;10.300;2022-07-17T06:52:37;102709.00;;;16.69;69.91
63111;BME280;49201;53.426;10.300;2022-07-17T06:55:03;102713.59;;;16.81;69.22
63111;BME280;49201;53.426;10.300;2022-07-17T06:57:28;102714.84;;;16.96;69.11
63111;BME280;49201;53.426;10.300;2022-07-17T06:59:54;102718.50;;;17.06;67.97
63111;BME280;49201;53.426;10.300;2022-07-17T07:02:19;102718.78;;;17.18;67.65
63111;BME280;49201;53.426;10.300;2022-07-17T07:04:45;102725.00;;;17.26;67.04
63111;BME280;49201;53.426;10.300;2022-07-17T07:07:11;102723.19;;;17.22;66.54
63111;BME280;49201;53.426;10.300;2022-07-17T07:09:36;102717.31;;;17.29;67.47
63111;BME280;49201;53.426;10.300;2022-07-17T07:12:02;102723.50;;;17.35;66.35
63111;BME280;49201;53.426;10.300;2022-07-17T07:14:27;102732.44;;;17.48;66.10
63111;BME280;49201;53.426;10.300;2022-07-17T07:16:53;102727.66;;;17.66;65.79
63111;BME280;49201;53.426;10.300;2022-07-17T07:19:18;102728.38;;;17.59;65.35
63111;BME280;49201;53.426;10.300;2022-07-17T07:21:44;102728.31;;;17.56;64.91
63111;BME280;49201;53.426;10.300;2022-07-17T07:24:09;102726.28;;;17.43;65.38
63111;BME280;49201;53.426;10.300;2022-07-17T07:26:36;102732.00;;;17.30;65.74
63111;BME280;49201;53.426;10.300;2022-07-17T07:29:02;102730.00;;;17.18;66.61
63111;BME280;49201;53.426;10.300;2022-07-17T07:31:28;102731.19;;;17.32;66.53
63111;BME280;49201;53.426;10.300;2022-07-17T07:33:53;102728.75;;;17.77;64.91
63111;BME280;49201;53.426;10.300;2022-07-17T07:36:19;102727.94;;;18.24;64.50
63111;BME280;49201;53.426;10.300;2022-07-17T07:38:44;102726.94;;;18.62;63.82
63111;BME280;49201;53.426;10.300;2022-07-17T07:41:13;102729.75;;;18.75;63.09
63111;BME280;49201;53.426;10.300;2022-07-17T07:43:38;102719.41;;;18.78;60.32
63111;BME280;49201;53.426;10.300;2022-07-17T07:46:04;102722.94;;;18.82;61.37
63111;BME280;49201;53.426;10.300;2022-07-17T07:48:30;102724.97;;;19.02;60.77
63111;BME280;49201;53.426;10.300;2022-07-17T07:50:55;102729.91;;;18.86;61.16
63111;BME280;49201;53.426;10.300;2022-07-17T07:53:21;102724.75;;;18.87;60.79
63111;BME280;49201;53.426;10.300;2022-07-17T07:55:46;102730.47;;;19.22;60.57
63111;BME280;49201;53.426;10.300;2022-07-17T07:58:13;102725.28;;;19.22;60.33
63111;BME280;49201;53.426;10.300;2022-07-17T08:00:40;102740.06;;;19.23;60.12
63111;BME280;49201;53.426;10.300;2022-07-17T08:03:06;102746.00;;;19.16;59.62
63111;BME280;49201;53.426;10.300;2022-07-17T08:05:33;102731.22;;;19.12;59.67
63111;BME280;49201;53.426;10.300;2022-07-17T08:07:58;102731.16;;;19.68;58.45
63111;BME280;49201;53.426;10.300;2022-07-17T08:10:24;102738.34;;;19.90;57.73
63111;BME280;49201;53.426;10.300;2022-07-17T08:12:50;102730.63;;;19.95;56.52
63111;BME280;49201;53.426;10.300;2022-07-17T08:15:17;102742.69;;;19.90;57.80
63111;BME280;49201;53.426;10.300;2022-07-17T08:17:47;102741.03;;;19.96;58.51
63111;BME280;49201;53.426;10.300;2022-07-17T08:20:13;102746.13;;;19.89;58.20
63111;BME280;49201;53.426;10.300;2022-07-17T08:22:41;102746.28;;;20.01;57.19
63111;BME280;49201;53.426;10.300;2022-07-17T08:25:08;102747.75;;;20.57;55.37
63111;BME280;49201;53.426;10.300;2022-07-17T08:27:40;102748.22;;;20.15;57.23
63111;BME280;49201;53.426;10.300;2022-07-17T08:30:08;102760.25;;;20.07;56.75
63111;BME280;49201;53.426;10.300;2022-07-17T08:32:34;102753.69;;;20.41;56.78
63111;BME280;49201;53.426;10.300;2022-07-17T08:34:59;102747.91;;;20.73;57.09
63111;BME280;49201;53.426;10.300;2022-07-17T08:37:25;102758.22;;;20.60;56.33
63111;BME280;49201;53.426;10.300;2022-07-17T08:39:51;102759.44;;;20.98;54.98
63111;BME280;49201;53.426;10.300;2022-07-17T08:42:17;102756.44;;;21.71;53.39
63111;BME280;49201;53.426;10.300;2022-07-17T08:44:43;102759.19;;;21.99;52.47
63111;BME280;49201;53.426;10.300;2022-07-17T08:47:10;102766.16;;;22.12;50.55
63111;BME280;49201;53.426;10.300;2022-07-17T08:49:45;102766.00;;;21.72;50.80
63111;BME280;49201;53.426;10.300;2022-07-17T08:52:12;102765.88;;;21.49;53.34
63111;BME280;49201;53.426;10.300;2022-07-17T08:54:39;102766.78;;;21.54;52.43
63111;BME280;49201;53.426;10.300;2022-07-17T08:57:05;102758.34;;;22.09;50.31
63111;BME280;49201;53.426;10.300;2022-07-17T08:59:31;102762.84;;;22.66;49.39
63111;BME280;49201;53.426;10.300;2022-07-17T09:01:58;102761.06;;;22.85;49.59
63111;BME280;49201;53.426;10.300;2022-07-17T09:04:24;102765.22;;;21.88;50.46
63111;BME280;49201;53.426;10.300;2022-07-17T09:07:03;102768.75;;;22.12;50.42
63111;BME280;49201;53.426;10.300;2022-07-17T09:09:30;102766.16;;;22.09;49.23
63111;BME280;49201;53.426;10.300;2022-07-17T09:11:57;102764.22;;;21.65;50.05
63111;BME280;49201;53.426;10.300;2022-07-17T09:14:24;102760.13;;;22.32;49.38
63111;BME280;49201;53.426;10.300;2022-07-17T09:17:00;102757.59;;;22.74;48.87
63111;BME280;49201;53.426;10.300;2022-07-17T09:19:30;102751.50;;;22.76;48.59
63111;BME280;49201;53.426;10.300;2022-07-17T09:27:07;102762.78;;;22.45;49.81
63111;BME280;49201;53.426;10.300;2022-07-17T09:29:33;102758.41;;;22.29;49.86
63111;BME280;49201;53.426;10.300;2022-07-17T09:31:58;102751.44;;;22.40;50.27
63111;BME280;49201;53.426;10.300;2022-07-17T09:34:24;102759.31;;;23.05;48.04
63111;BME280;49201;53.426;10.300;2022-07-17T09:37:02;102744.47;;;23.40;47.22
63111;BME280;49201;53.426;10.300;2022-07-17T09:39:37;102747.09;;;23.38;47.53
63111;BME280;49201;53.426;10.300;2022-07-17T09:42:03;102744.41;;;23.53;46.92
63111;BME280;49201;53.426;10.300;2022-07-17T09:44:29;102751.41;;;23.47;47.13
63111;BME280;49201;53.426;10.300;2022-07-17T09:46:55;102743.63;;;23.15;48.38
63111;BME280;49201;53.426;10.300;2022-07-17T09:49:25;102748.84;;;23.18;48.05
63111;BME280;49201;53.426;10.300;2022-07-17T09:51:53;102754.09;;;23.02;47.62
63111;BME280;49201;53.426;10.300;2022-07-17T09:54:22;102748.88;;;23.08;47.59
63111;BME280;49201;53.426;10.300;2022-07-17T09:56:50;102754.88;;;23.59;47.14
63111;BME280;49201;53.426;10.300;2022-07-17T09:59:16;102754.78;;;23.83;46.23
63111;BME280;49201;53.426;10.300;2022-07-17T10:01:44;102756.41;;;24.13;45.64
63111;BME280;49201;53.426;10.300;2022-07-17T10:04:11;102753.75;;;24.22;44.58
63111;BME280;49201;53.426;10.300;2022-07-17T10:06:37;102751.75;;;24.63;45.36
63111;BME280;49201;53.426;10.300;2022-07-17T10:09:03;102749.97;;;24.65;44.42
63111;BME280;49201;53.426;10.300;2022-07-17T10:11:32;102747.28;;;24.71;43.92
63111;BME280;49201;53.426;10.300;2022-07-17T10:14:05;102748.09;;;24.83;43.54
63111;BME280;49201;53.426;10.300;2022-07-17T10:16:34;102742.63;;;25.04;43.35
63111;BME280;49201;53.426;10.300;2022-07-17T10:19:02;102736.81;;;24.71;42.80
63111;BME280;49201;53.426;10.300;2022-07-17T10:21:30;102746.03;;;25.14;41.94
63111;BME280;49201;53.426;10.300;2022-07-17T10:29:03;102731.78;;;25.42;41.65
63111;BME280;49201;53.426;10.300;2022-07-17T10:31:31;102745.22;;;25.06;42.54
63111;BME280;49201;53.426;10.300;2022-07-17T10:34:05;102740.03;;;25.01;42.30
63111;BME280;49201;53.426;10.300;2022-07-17T10:36:38;102727.56;;;25.27;42.38
63111;BME280;49201;53.426;10.300;2022-07-17T10:39:11;102736.69;;;24.84;44.09
63111;BME280;49201;53.426;10.300;2022-07-17T10:41:38;102727.59;;;25.23;42.54
63111;BME280;49201;53.426;10.300;2022-07-17T10:44:04;102720.38;;;25.44;41.35
63111;BME280;49201;53.426;10.300;2022-07-17T10:46:29;102719.56;;;25.38;40.30
63111;BME280;49201;53.426;10.300;2022-07-17T10:48:55;102717.66;;;25.50;39.98
63111;BME280;49201;53.426;10.300;2022-07-17T10:51:24;102722.34;;;25.21;41.03
63111;BME280;49201;53.426;10.300;2022-07-17T10:53:50;102725.81;;;25.29;41.55
63111;BME280;49201;53.426;10.300;2022-07-17T10:56:15;102716.63;;;24.82;42.08
63111;BME280;49201;53.426;10.300;2022-07-17T10:58:43;102719.72;;;25.20;42.75
63111;BME280;49201;53.426;10.300;2022-07-17T11:01:20;102720.97;;;24.86;42.83
63111;BME280;49201;53.426;10.300;2022-07-17T11:03:51;102718.81;;;25.22;42.14
63111;BME280;49201;53.426;10.300;2022-07-17T11:06:24;102717.38;;;24.96;39.98
63111;BME280;49201;53.426;10.300;2022-07-17T11:08:58;102714.13;;;25.53;40.32
63111;BME280;49201;53.426;10.300;2022-07-17T11:14:25;102715.28;;;26.00;37.64
63111;BME280;49201;53.426;10.300;2022-07-17T11:16:55;102717.38;;;25.73;38.96
63111;BME280;49201;53.426;10.300;2022-07-17T11:19:22;102713.88;;;25.72;39.68
63111;BME280;49201;53.426;10.300;2022-07-17T11:21:51;102724.50;;;25.65;40.64
63111;BME280;49201;53.426;10.300;2022-07-17T11:24:16;102719.47;;;26.15;39.53
63111;BME280;49201;53.426;10.300;2022-07-17T11:26:43;102716.19;;;25.99;39.93
63111;BME280;49201;53.426;10.300;2022-07-17T11:29:12;102710.13;;;25.93;40.06
63111;BME280;49201;53.426;10.300;2022-07-17T11:31:37;102709.25;;;25.92;40.70
63111;BME280;49201;53.426;10.300;2022-07-17T11:34:05;102711.91;;;25.89;39.84
63111;BME280;49201;53.426;10.300;2022-07-17T11:36:37;102700.59;;;26.43;40.95
63111;BME280;49201;53.426;10.300;2022-07-17T11:39:11;102704.09;;;25.85;39.79
63111;BME280;49201;53.426;10.300;2022-07-17T11:41:42;102707.16;;;26.17;39.28
63111;BME280;49201;53.426;10.300;2022-07-17T11:44:14;102702.00;;;26.11;40.25
63111;BME280;49201;53.426;10.300;2022-07-17T11:46:42;102707.06;;;26.23;39.93
63111;BME280;49201;53.426;10.300;2022-07-17T11:49:08;102707.50;;;25.94;39.37
63111;BME280;49201;53.426;10.300;2022-07-17T11:51:42;102701.44;;;25.88;40.39
63111;BME280;49201;53.426;10.300;2022-07-17T11:54:15;102704.78;;;25.99;38.89
63111;BME280;49201;53.426;10.300;2022-07-17T11:56:42;102693.69;;;25.77;39.18
63111;BME280;49201;53.426;10.300;2022-07-17T11:59:10;102701.72;;;25.65;39.25
63111;BME280;49201;53.426;10.300;2022-07-17T12:01:43;102706.84;;;25.74;39.93
63111;BME280;49201;53.426;10.300;2022-07-17T12:04:14;102700.34;;;26.02;39.34
63111;BME280;49201;53.426;10.300;2022-07-17T12:06:40;102697.28;;;26.31;39.26
63111;BME280;49201;53.426;10.300;2022-07-17T12:09:06;102703.59;;;26.21;39.78
63111;BME280;49201;53.426;10.300;2022-07-17T12:11:33;102699.75;;;26.41;38.67
63111;BME280;49201;53.426;10.300;2022-07-17T12:14:09;102694.53;;;26.40;39.32
63111;BME280;49201;53.426;10.300;2022-07-17T12:16:36;102692.00;;;26.34;38.53
63111;BME280;49201;53.426;10.300;2022-07-17T12:21:30;102692.78;;;26.39;38.79
63111;BME280;49201;53.426;10.300;2022-07-17T12:24:02;102692.84;;;26.36;37.96
63111;BME280;49201;53.426;10.300;2022-07-17T12:26:29;102692.72;;;26.42;38.84
63111;BME280;49201;53.426;10.300;2022-07-17T12:28:55;102694.34;;;26.50;38.03
63111;BME280;49201;53.426;10.300;2022-07-17T12:31:21;102691.75;;;26.47;39.54
63111;BME280;49201;53.426;10.300;2022-07-17T12:33:50;102692.91;;;26.31;37.45
63111;BME280;49201;53.426;10.300;2022-07-17T12:36:16;102698.34;;;26.19;37.45
63111;BME280;49201;53.426;10.300;2022-07-17T12:38:41;102699.00;;;26.33;38.37
63111;BME280;49201;53.426;10.300;2022-07-17T12:41:07;102700.31;;;26.05;38.66
63111;BME280;49201;53.426;10.300;2022-07-17T12:43:33;102704.31;;;26.30;38.32
63111;BME280;49201;53.426;10.300;2022-07-17T12:45:58;102689.97;;;25.95;38.77
63111;BME280;49201;53.426;10.300;2022-07-17T12:48:24;102688.78;;;26.15;38.53
63111;BME280;49201;53.426;10.300;2022-07-17T12:50:49;102693.88;;;26.26;38.27
63111;BME280;49201;53.426;10.300;2022-07-17T12:53:15;102695.53;;;25.69;38.44
63111;BME280;49201;53.426;10.300;2022-07-17T12:55:40;102689.53;;;25.61;39.58